Time;durP1;ratioP1;P1;durP2;ratioP2;P2;SDS_P1;SDS_P2;PMS_P1;PMS_P2;Temp;Humidity;BMP_temperature;BMP_pressure;BME280_temperature;BME280_humidity;BME280_pressure;Samples;Min_cycle;Max_cycle;Signal;HPM_P1;HPM_P2
2021/03/14 00:02:22;;;;;;;1.5;0.9;;;;;;;6.72;93.36816;97340.31;;;;
2021/03/14 00:12:18;;;;;;;1.5;1;;;;;;;6.77;91.0752;97344.73;;;;
2021/03/14 00:22:16;;;;;;;1.7;1.1;;;;;;;6.67;91.47559;97321.7;;;;
2021/03/14 00:32:14;;;;;;;2.2;0.9;;;;;;;6.69;90.8584;97284.72;;;;
2021/03/14 00:42:12;;;;;;;2.9;1.2;;;;;;;6.67;90.95313;97292.26;;;;
2021/03/14 00:52:10;;;;;;;2.1;0.8;;;;;;;6.74;88.85352;97314;;;;
2021/03/14 01:02:09;;;;;;;2.4;1.3;;;;;;;6.75;88.875;97306.77;;;;
2021/03/14 01:12:07;;;;;;;4.3;2.4;;;;;;;6.73;89.72949;97328.52;;;;
2021/03/14 01:22:05;;;;;;;3.8;1.7;;;;;;;6.75;88.95313;97320.15;;;;
2021/03/14 01:32:03;;;;;;;3;1.4;;;;;;;6.74;89.25391;97343.45;;;;
2021/03/14 01:42:01;;;;;;;3.4;2;;;;;;;6.7;88.4873;97310.37;;;;
2021/03/14 01:51:59;;;;;;;2.5;1.5;;;;;;;6.6;89.00195;97289.25;;;;
2021/03/14 02:01:58;;;;;;;3.8;1.3;;;;;;;6.43;89.06738;97307.96;;;;
2021/03/14 02:11:56;;;;;;;3.5;2.1;;;;;;;6.32;88.47754;97315.48;;;;
2021/03/14 02:21:54;;;;;;;2.6;1.3;;;;;;;6.31;86.95996;97323.84;;;;
2021/03/14 02:31:52;;;;;;;4;1.2;;;;;;;6.26;85.24414;97302.56;;;;
2021/03/14 02:41:50;;;;;;;1.6;0.8;;;;;;;6.15;84.5752;97293.24;;;;
2021/03/14 02:51:48;;;;;;;4;1.3;;;;;;;6.12;82.65332;97299.21;;;;
2021/03/14 03:11:44;;;;;;;1.8;0.9;;;;;;;6.05;81.68457;97300.45;;;;
2021/03/14 03:21:42;;;;;;;1.6;0.8;;;;;;;6.01;81.54199;97306.72;;;;
2021/03/14 03:31:40;;;;;;;1.4;0.8;;;;;;;5.95;81.44141;97294.59;;;;
2021/03/14 03:41:38;;;;;;;1.3;0.7;;;;;;;5.91;80.9541;97317.7;;;;
2021/03/14 03:51:36;;;;;;;1.9;0.9;;;;;;;5.87;80.87988;97312.17;;;;
2021/03/14 04:01:34;;;;;;;2.3;0.9;;;;;;;5.88;80.37988;97294.25;;;;
2021/03/14 04:11:32;;;;;;;3.3;1.6;;;;;;;5.84;80.02832;97302.06;;;;
2021/03/14 04:21:30;;;;;;;2.3;1;;;;;;;5.81;80.58984;97310.7;;;;
2021/03/14 04:31:28;;;;;;;1;0.5;;;;;;;5.83;80.02441;97297.81;;;;
2021/03/14 04:41:26;;;;;;;1.2;0.4;;;;;;;5.82;80.06738;97303.48;;;;
2021/03/14 04:51:24;;;;;;;1.7;0.8;;;;;;;5.74;80.18848;97313.03;;;;
2021/03/14 05:01:22;;;;;;;1.2;0.8;;;;;;;5.66;81.02051;97295.05;;;;
2021/03/14 05:11:20;;;;;;;2.3;1;;;;;;;5.68;80.54297;97297.44;;;;
2021/03/14 05:21:18;;;;;;;2.9;1;;;;;;;5.6;81.54297;97285.59;;;;
2021/03/14 05:31:31;;;;;;;2.7;1.1;;;;;;;5.67;80.08398;97288.63;;;;
2021/03/14 05:41:14;;;;;;;0.9;0.3;;;;;;;5.66;80.34082;97271;;;;
2021/03/14 05:51:12;;;;;;;1;0.8;;;;;;;5.67;80.3291;97280.6;;;;
2021/03/14 06:01:12;;;;;;;1.1;0.6;;;;;;;5.88;80.19043;97280.88;;;;
2021/03/14 06:11:11;;;;;;;1.6;0.8;;;;;;;6.13;80.22559;97304.27;;;;
2021/03/14 06:21:07;;;;;;;2;0.9;;;;;;;6.31;79.80176;97315.81;;;;
2021/03/14 06:31:05;;;;;;;2.3;0.6;;;;;;;6.54;79.17285;97317.28;;;;
2021/03/14 06:41:03;;;;;;;1.7;0.8;;;;;;;6.63;78.07129;97314.63;;;;
2021/03/14 06:51:01;;;;;;;3.2;1.7;;;;;;;6.6;77.36426;97337.44;;;;
2021/03/14 07:00:59;;;;;;;2.6;0.8;;;;;;;6.75;78.02637;97357.63;;;;
2021/03/14 07:10:57;;;;;;;3.1;1.5;;;;;;;7.08;77.35938;97356.09;;;;
2021/03/14 07:20:56;;;;;;;4.6;2.3;;;;;;;7.39;75.68945;97364.76;;;;
2021/03/14 07:30:54;;;;;;;3;1.6;;;;;;;7.66;73.25977;97358.28;;;;
2021/03/14 07:40:52;;;;;;;4.5;1.8;;;;;;;7.76;72.06445;97357.95;;;;
2021/03/14 07:50:50;;;;;;;2.2;1.3;;;;;;;8.08;71.19434;97378.07;;;;
2021/03/14 08:00:49;;;;;;;3.7;1.3;;;;;;;8.16;70.15234;97382.6;;;;
2021/03/14 08:10:47;;;;;;;2.5;1;;;;;;;8.19;69.41309;97383.88;;;;
2021/03/14 08:20:45;;;;;;;4.5;1.7;;;;;;;8.51;69.09375;97404.77;;;;
2021/03/14 08:30:44;;;;;;;5.5;2.2;;;;;;;8.78;67.13184;97425.81;;;;
2021/03/14 08:40:42;;;;;;;3.5;1.4;;;;;;;9;67.15527;97425.55;;;;
2021/03/14 08:50:40;;;;;;;5.6;2.7;;;;;;;9.06;64.29785;97434.98;;;;
2021/03/14 09:00:39;;;;;;;4.4;2;;;;;;;9.28;64.08301;97431.22;;;;
2021/03/14 09:10:37;;;;;;;3.4;1.7;;;;;;;9.12;63.80957;97440.19;;;;
2021/03/14 09:20:36;;;;;;;6.3;2.5;;;;;;;9.1;63.07422;97446.67;;;;
2021/03/14 09:30:34;;;;;;;6;2.2;;;;;;;9.17;62.98145;97438.09;;;;
2021/03/14 09:40:33;;;;;;;5.2;2.2;;;;;;;9.03;62.36426;97473.27;;;;
2021/03/14 09:50:31;;;;;;;4;2.3;;;;;;;8.91;63.98242;97464.33;;;;
2021/03/14 10:00:30;;;;;;;5;2;;;;;;;8.95;64.53027;97463.37;;;;
2021/03/14 10:10:28;;;;;;;7.1;2.4;;;;;;;9.03;64.75684;97493.97;;;;
2021/03/14 10:20:26;;;;;;;8.5;4.1;;;;;;;8.64;65.33008;97511.22;;;;
2021/03/14 10:30:25;;;;;;;6.6;3.6;;;;;;;8.46;66.81055;97507;;;;
2021/03/14 10:40:23;;;;;;;6.7;4;;;;;;;8.69;67.03809;97505.66;;;;
2021/03/14 10:50:22;;;;;;;4.6;2.6;;;;;;;8.59;65.16504;97525.59;;;;
2021/03/14 11:00:21;;;;;;;8.3;2.5;;;;;;;8.87;64.54102;97527.88;;;;
2021/03/14 11:10:19;;;;;;;4.4;2.3;;;;;;;8.84;63.87207;97545.44;;;;
2021/03/14 11:20:17;;;;;;;7.9;3.9;;;;;;;9;64.40234;97551.06;;;;
2021/03/14 11:30:16;;;;;;;6.7;3.5;;;;;;;9.47;62.42676;97532.98;;;;
2021/03/14 11:40:14;;;;;;;4.5;2.2;;;;;;;9.27;60.49902;97523.73;;;;
2021/03/14 11:50:13;;;;;;;10;3.1;;;;;;;9.35;60.44238;97522.12;;;;
2021/03/14 12:00:12;;;;;;;5.2;2.6;;;;;;;9.59;59.17578;97517.7;;;;
2021/03/14 12:10:12;;;;;;;5.8;2.2;;;;;;;9.85;59.3457;97490.61;;;;
2021/03/14 12:20:12;;;;;;;5.9;3.4;;;;;;;9.51;60.71484;97507.77;;;;
2021/03/14 12:30:07;;;;;;;6;2.9;;;;;;;9.68;60.88379;97506.1;;;;
2021/03/14 12:40:06;;;;;;;6.6;3.9;;;;;;;9.37;60.18555;97515.3;;;;
2021/03/14 12:50:06;;;;;;;5.7;3;;;;;;;9.55;59.57715;97521.36;;;;
2021/03/14 13:00:03;;;;;;;4.6;2.8;;;;;;;9.55;59.39648;97522.15;;;;
2021/03/14 13:10:01;;;;;;;8.3;3.9;;;;;;;9.6;59.08691;97551.56;;;;
2021/03/14 13:20:00;;;;;;;5.6;2.4;;;;;;;9.6;59.36816;97572.29;;;;
2021/03/14 13:29:59;;;;;;;6.5;3.1;;;;;;;9.68;57.08105;97581.43;;;;
2021/03/14 13:39:57;;;;;;;5.9;3.9;;;;;;;9.67;57.31641;97582.53;;;;
2021/03/14 13:49:56;;;;;;;10.2;7;;;;;;;9.44;58.37305;97595.48;;;;
2021/03/14 13:59:55;;;;;;;10.2;5.3;;;;;;;9.1;59.80957;97599.88;;;;
2021/03/14 14:09:54;;;;;;;6.8;4.3;;;;;;;9.29;60.41211;97596.02;;;;
2021/03/14 14:19:52;;;;;;;17.9;10.8;;;;;;;8.86;59.58496;97591.56;;;;
2021/03/14 14:29:50;;;;;;;6.1;3.2;;;;;;;8.1;67.5332;97634.25;;;;
2021/03/14 14:39:49;;;;;;;9.7;6.4;;;;;;;6.66;80.26953;97657.48;;;;
2021/03/14 14:49:47;;;;;;;13.1;7.1;;;;;;;6.1;83.82227;97652.61;;;;
2021/03/14 14:59:45;;;;;;;11.3;7.9;;;;;;;6.63;83.25293;97630.52;;;;
2021/03/14 15:09:43;;;;;;;5.8;4.1;;;;;;;7.14;79.04883;97627.34;;;;
2021/03/14 15:19:42;;;;;;;10.4;6.4;;;;;;;7.3;73.91504;97625.83;;;;
2021/03/14 15:29:40;;;;;;;38;26.1;;;;;;;7.41;71.44434;97638.66;;;;
2021/03/14 15:39:38;;;;;;;26;12.6;;;;;;;7.59;69.25;97628.78;;;;
2021/03/14 15:49:37;;;;;;;40;25.7;;;;;;;7.94;67.45215;97622.41;;;;
2021/03/14 15:59:35;;;;;;;27;20.3;;;;;;;7.39;68.07422;97634.72;;;;
2021/03/14 16:09:34;;;;;;;27.1;16.4;;;;;;;6.82;69.2959;97647.17;;;;
2021/03/14 16:19:32;;;;;;;70.4;45.9;;;;;;;6.47;69.15039;97651.49;;;;
2021/03/14 16:29:31;;;;;;;21.2;13.2;;;;;;;6.3;69.28027;97662.86;;;;
2021/03/14 16:39:28;;;;;;;13.4;9.1;;;;;;;5.99;72.00488;97710.88;;;;
2021/03/14 16:49:27;;;;;;;12.1;9;;;;;;;5.66;72.36328;97722.72;;;;
2021/03/14 16:59:25;;;;;;;15.6;9.5;;;;;;;5.29;73.37207;97729.02;;;;
2021/03/14 17:09:23;;;;;;;9.4;7;;;;;;;4.94;74.77246;97727.73;;;;
2021/03/14 17:19:21;;;;;;;14.4;10.3;;;;;;;4.72;75.66016;97756.89;;;;
2021/03/14 17:29:19;;;;;;;15.5;11.8;;;;;;;4.49;76.55371;97769.24;;;;
2021/03/14 17:39:17;;;;;;;19.7;12.6;;;;;;;4.4;77.26074;97786.98;;;;
2021/03/14 17:49:15;;;;;;;26.7;16.4;;;;;;;4.29;77.85156;97795.39;;;;
2021/03/14 17:59:13;;;;;;;28.9;15.7;;;;;;;4.21;78.29102;97798.68;;;;
2021/03/14 18:09:11;;;;;;;24.2;17.1;;;;;;;3.96;78.73535;97816.56;;;;
2021/03/14 18:19:11;;;;;;;24.6;19.1;;;;;;;3.65;80.43164;97820.61;;;;
2021/03/14 18:29:07;;;;;;;28.8;19.6;;;;;;;3.79;80.29102;97829.53;;;;
2021/03/14 18:39:05;;;;;;;20.6;13.5;;;;;;;3.84;81.2002;97832.16;;;;
2021/03/14 18:49:03;;;;;;;20.1;12.3;;;;;;;3.94;81.64941;97836.59;;;;
2021/03/14 18:59:01;;;;;;;21.4;14.1;;;;;;;4.01;81.63184;97837.84;;;;
2021/03/14 19:08:59;;;;;;;23.2;18.3;;;;;;;3.94;82.31543;97849.91;;;;
2021/03/14 19:18:57;;;;;;;18.9;16.9;;;;;;;3.71;83.80176;97859.48;;;;
2021/03/14 19:28:55;;;;;;;21.7;15.6;;;;;;;3.55;85.71973;97858;;;;
2021/03/14 19:38:52;;;;;;;16.5;12.8;;;;;;;3.46;87.18652;97868.48;;;;
2021/03/14 19:48:50;;;;;;;15.4;10.3;;;;;;;3.26;87.47656;97879.3;;;;
2021/03/14 19:58:48;;;;;;;18.4;9.9;;;;;;;3.14;88.57813;97888.67;;;;
2021/03/14 20:08:46;;;;;;;17.7;13.1;;;;;;;2.96;88.6084;97895.44;;;;
2021/03/14 20:18:43;;;;;;;17.9;14.9;;;;;;;2.92;89.57031;97907.7;;;;
2021/03/14 20:28:41;;;;;;;21;12.5;;;;;;;2.83;90.08398;97904.83;;;;
2021/03/14 20:38:40;;;;;;;29.4;17.9;;;;;;;2.65;89.94531;97905.44;;;;
2021/03/14 20:48:37;;;;;;;21.7;16.9;;;;;;;2.41;90.97754;97912.45;;;;
2021/03/14 20:58:34;;;;;;;15.5;11.2;;;;;;;2.22;91.25684;97909.56;;;;
2021/03/14 21:08:32;;;;;;;16.4;12.2;;;;;;;2.12;91.39941;97919.45;;;;
2021/03/14 21:18:30;;;;;;;17.6;12.3;;;;;;;2;91.90137;97922.39;;;;
2021/03/14 21:28:28;;;;;;;19.9;12.9;;;;;;;1.95;91.72852;97923.19;;;;
2021/03/14 21:38:25;;;;;;;13.4;11.1;;;;;;;1.91;91.63086;97921.32;;;;
2021/03/14 21:48:23;;;;;;;21;13.2;;;;;;;2.13;91.94043;97936.97;;;;
2021/03/14 21:58:21;;;;;;;30.9;21.9;;;;;;;2.31;91.62598;97939.07;;;;
2021/03/14 22:08:19;;;;;;;31.9;20.7;;;;;;;2.3;91.41504;97948.1;;;;
2021/03/14 22:18:16;;;;;;;28.3;19.2;;;;;;;2.19;91.78711;97962.47;;;;
2021/03/14 22:28:14;;;;;;;30;17;;;;;;;2.02;91.66504;97963.57;;;;
2021/03/14 22:38:12;;;;;;;22.5;19;;;;;;;1.95;93.12402;97970.21;;;;
2021/03/14 22:48:12;;;;;;;22.3;17.4;;;;;;;1.98;93.49316;97964.36;;;;
2021/03/14 22:58:07;;;;;;;23.1;15;;;;;;;2.02;94.00879;97963.57;;;;
2021/03/14 23:08:05;;;;;;;22.4;17.3;;;;;;;1.92;93.89941;97963.58;;;;
2021/03/14 23:18:03;;;;;;;21.3;15.3;;;;;;;1.66;93.88672;97959.34;;;;
2021/03/14 23:28:00;;;;;;;17.6;14.5;;;;;;;1.34;93.4209;97943.64;;;;
2021/03/14 23:37:58;;;;;;;34.4;20;;;;;;;1.03;94.12109;97941.98;;;;
2021/03/14 23:47:56;;;;;;;24.8;17.8;;;;;;;0.75;94.86133;97935.27;;;;
2021/03/14 23:57:53;;;;;;;29.8;20.3;;;;;;;0.61;97.26074;97946.61;;;;
